createdAt,value
2022-11-19T00:02:18.176Z,11.93
2022-11-19T00:05:21.087Z,13.65
2022-11-19T00:08:24.210Z,14.90
2022-11-19T00:11:47.059Z,13.32
2022-11-19T00:14:49.555Z,13.25
2022-11-19T00:17:52.486Z,13.32
2022-11-19T00:20:56.434Z,13.43
2022-11-19T00:23:59.734Z,16.97
2022-11-19T00:27:02.332Z,15.88
2022-11-19T00:30:19.799Z,14.95
2022-11-19T00:33:29.585Z,15.68
2022-11-19T00:36:32.458Z,13.80
2022-11-19T00:39:34.968Z,17.83
2022-11-19T00:42:39.389Z,14.35
2022-11-19T00:45:44.477Z,15.00
2022-11-19T00:48:48.882Z,14.75
2022-11-19T00:51:51.509Z,17.35
2022-11-19T00:54:54.389Z,14.43
2022-11-19T00:57:56.893Z,15.93
2022-11-19T01:01:00.035Z,18.17
2022-11-19T01:04:02.951Z,17.85
2022-11-19T01:07:05.882Z,17.92
2022-11-19T01:10:08.993Z,17.33
2022-11-19T01:13:30.630Z,17.85
2022-11-19T01:16:35.955Z,17.17
2022-11-19T01:19:38.917Z,17.17
2022-11-19T01:22:41.365Z,16.33
2022-11-19T01:25:44.359Z,19.47
2022-11-19T01:28:47.214Z,17.65
2022-11-19T01:31:50.002Z,18.98
2022-11-19T01:34:53.482Z,18.55
2022-11-19T01:37:56.786Z,21.25
2022-11-19T01:40:59.925Z,19.03
2022-11-19T01:44:05.666Z,17.55
2022-11-19T01:47:08.183Z,16.67
2022-11-19T01:50:11.393Z,21.85
2022-11-19T01:53:14.470Z,18.58
2022-11-19T01:56:18.587Z,18.77
2022-11-19T01:59:21.647Z,16.25
2022-11-19T02:02:25.387Z,18.52
2022-11-19T02:05:28.489Z,18.75
2022-11-19T02:08:35.270Z,21.45
2022-11-19T02:11:48.387Z,19.50
2022-11-19T02:14:56.951Z,19.35
2022-11-19T02:18:23.812Z,22.25
2022-11-19T02:22:08.184Z,17.45
2022-11-19T02:25:23.255Z,21.33
2022-11-19T02:28:39.468Z,18.07
2022-11-19T02:31:48.916Z,19.17
2022-11-19T02:34:55.985Z,20.05
2022-11-19T02:38:11.266Z,23.25
2022-11-19T02:41:35.900Z,19.85
2022-11-19T02:45:02.641Z,21.40
2022-11-19T02:48:12.659Z,22.65
2022-11-19T02:51:17.720Z,22.75
2022-11-19T02:54:20.269Z,21.33
2022-11-19T02:57:23.040Z,23.58
2022-11-19T03:00:44.937Z,22.70
2022-11-19T03:04:06.899Z,19.92
2022-11-19T03:07:18.389Z,21.12
2022-11-19T03:10:24.072Z,21.98
2022-11-19T03:14:08.085Z,24.12
2022-11-19T03:17:16.752Z,25.20
2022-11-19T03:20:39.362Z,22.83
2022-11-19T03:23:48.357Z,21.98
2022-11-19T03:26:56.706Z,22.02
2022-11-19T03:30:01.119Z,23.80
2022-11-19T03:33:10.021Z,24.60
2022-11-19T03:36:24.682Z,21.90
2022-11-19T03:39:27.585Z,24.95
2022-11-19T03:42:30.659Z,23.08
2022-11-19T03:45:36.172Z,20.83
2022-11-19T03:48:40.035Z,23.00
2022-11-19T03:51:52.343Z,23.87
2022-11-19T03:54:55.216Z,23.80
2022-11-19T03:58:05.586Z,25.45
2022-11-19T04:01:09.716Z,24.95
2022-11-19T04:04:31.071Z,18.90
2022-11-19T04:07:33.689Z,22.45
2022-11-19T04:10:37.107Z,23.17
2022-11-19T04:13:39.601Z,25.23
2022-11-19T04:16:42.521Z,21.10
2022-11-19T04:19:45.288Z,23.83
2022-11-19T04:22:51.418Z,22.42
2022-11-19T04:25:54.010Z,25.52
2022-11-19T04:28:57.098Z,25.15
2022-11-19T04:31:59.682Z,26.02
2022-11-19T04:35:02.573Z,21.43
2022-11-19T04:38:05.112Z,22.92
2022-11-19T04:41:08.074Z,21.10
2022-11-19T04:44:10.700Z,23.62
2022-11-19T04:47:13.669Z,22.90
2022-11-19T04:50:16.290Z,22.37
2022-11-19T04:53:20.287Z,28.08
2022-11-19T04:56:22.877Z,32.47
2022-11-19T04:59:26.323Z,33.83
2022-11-19T05:02:28.880Z,29.05
2022-11-19T05:05:31.829Z,29.80
2022-11-19T05:08:34.406Z,24.60
2022-11-19T05:11:37.328Z,28.38
2022-11-19T05:14:39.995Z,29.80
2022-11-19T05:17:42.890Z,29.73
2022-11-19T05:20:45.553Z,27.97
2022-11-19T05:23:48.422Z,28.00
2022-11-19T05:26:51.070Z,29.00
2022-11-19T05:29:54.030Z,29.58
2022-11-19T05:32:56.707Z,28.45
2022-11-19T05:35:59.526Z,28.03
2022-11-19T05:39:02.251Z,31.12
2022-11-19T05:42:05.256Z,29.73
2022-11-19T05:45:08.542Z,26.48
2022-11-19T05:48:11.413Z,33.45
2022-11-19T05:51:15.387Z,26.43
2022-11-19T05:54:18.397Z,29.77
2022-11-19T05:57:20.959Z,28.33
2022-11-19T06:00:23.965Z,28.20
2022-11-19T06:03:26.831Z,30.23
2022-11-19T06:06:29.667Z,26.37
2022-11-19T06:09:32.665Z,30.50
2022-11-19T06:12:35.532Z,27.10
2022-11-19T06:15:41.090Z,27.48
2022-11-19T06:18:43.980Z,24.77
2022-11-19T06:21:47.108Z,26.17
2022-11-19T06:24:49.727Z,28.20
2022-11-19T06:27:52.682Z,31.67
2022-11-19T06:30:55.280Z,29.27
2022-11-19T06:33:58.273Z,34.58
2022-11-19T06:37:00.843Z,35.93
2022-11-19T06:40:04.119Z,31.75
2022-11-19T06:43:06.827Z,35.00
2022-11-19T06:46:11.089Z,32.95
2022-11-19T06:49:20.079Z,32.83
2022-11-19T06:52:23.568Z,35.30
2022-11-19T06:55:27.581Z,34.15
2022-11-19T06:58:30.961Z,37.50
2022-11-19T07:01:33.595Z,28.65
2022-11-19T07:04:36.435Z,28.50
2022-11-19T07:07:39.056Z,30.83
2022-11-19T07:10:42.573Z,25.62
2022-11-19T07:13:57.257Z,24.35
2022-11-19T07:17:00.360Z,25.95
2022-11-19T07:20:03.070Z,24.05
2022-11-19T07:23:10.077Z,24.23
2022-11-19T07:26:14.018Z,27.50
2022-11-19T07:29:17.063Z,23.77
2022-11-19T07:32:19.705Z,24.27
2022-11-19T07:35:22.645Z,22.98
2022-11-19T07:38:25.350Z,28.63
2022-11-19T07:41:46.689Z,28.02
2022-11-19T07:44:54.508Z,22.75
2022-11-19T07:47:57.747Z,25.62
2022-11-19T07:51:00.313Z,22.17
2022-11-19T07:54:03.871Z,20.60
2022-11-19T07:57:06.425Z,23.62
2022-11-19T08:00:09.991Z,18.55
2022-11-19T08:03:14.882Z,20.98
2022-11-19T08:06:19.995Z,16.33
2022-11-19T08:09:22.528Z,17.77
2022-11-19T08:12:25.299Z,17.50
2022-11-19T08:15:27.832Z,19.25
2022-11-19T08:18:31.623Z,22.08
2022-11-19T08:21:34.733Z,20.77
2022-11-19T08:24:37.666Z,17.87
2022-11-19T08:27:40.216Z,23.55
2022-11-19T08:30:43.217Z,26.00
2022-11-19T08:33:45.773Z,29.15
2022-11-19T08:36:48.812Z,26.90
2022-11-19T08:39:51.394Z,22.97
2022-11-19T08:43:00.281Z,23.98
2022-11-19T08:46:02.927Z,27.33
2022-11-19T08:49:06.344Z,26.20
2022-11-19T08:52:08.945Z,29.08
2022-11-19T08:55:11.759Z,27.53
2022-11-19T08:58:14.418Z,28.80
2022-11-19T09:01:18.111Z,27.13
2022-11-19T09:04:20.873Z,27.77
2022-11-19T09:07:24.007Z,28.98
2022-11-19T09:10:27.603Z,28.43
2022-11-19T09:13:30.731Z,28.10
2022-11-19T09:16:33.351Z,24.80
2022-11-19T09:19:36.468Z,25.80
2022-11-19T09:22:39.181Z,27.42
2022-11-19T09:25:42.137Z,25.27
2022-11-19T09:28:45.396Z,25.60
2022-11-19T09:31:48.250Z,27.10
2022-11-19T09:34:51.307Z,30.37
2022-11-19T09:37:54.386Z,26.02
2022-11-19T09:40:57.753Z,27.77
2022-11-19T09:44:12.920Z,24.70
2022-11-19T09:47:23.091Z,29.80
2022-11-19T09:50:31.814Z,22.92
2022-11-19T09:53:54.288Z,23.58
2022-11-19T09:57:04.086Z,22.67
2022-11-19T10:00:09.050Z,23.50
2022-11-19T10:03:16.266Z,25.62
2022-11-19T10:06:29.189Z,30.35
2022-11-19T10:10:11.924Z,24.48
2022-11-19T10:13:15.417Z,27.43
2022-11-19T10:16:26.864Z,27.30
2022-11-19T10:19:51.683Z,27.08
2022-11-19T10:23:00.344Z,31.15
2022-11-19T10:26:05.809Z,30.02
2022-11-19T10:29:16.458Z,26.47
2022-11-19T10:32:26.437Z,22.90
2022-11-19T10:35:42.095Z,25.10
2022-11-19T10:38:53.970Z,23.33
2022-11-19T10:42:24.793Z,23.15
2022-11-19T10:45:29.774Z,25.23
2022-11-19T10:48:37.850Z,23.52
2022-11-19T10:51:41.786Z,25.92
2022-11-19T10:54:45.240Z,26.02
2022-11-19T10:57:48.949Z,34.25
2022-11-19T11:01:01.454Z,23.17
2022-11-19T11:04:24.098Z,22.17
2022-11-19T11:07:49.807Z,28.98
2022-11-19T11:10:53.961Z,26.00
2022-11-19T11:14:18.249Z,26.23
2022-11-19T11:17:25.173Z,25.57
2022-11-19T11:20:28.709Z,25.30
2022-11-19T11:23:31.573Z,34.15
2022-11-19T11:26:35.178Z,24.80
2022-11-19T11:29:38.191Z,27.73
2022-11-19T11:32:41.816Z,27.67
2022-11-19T11:35:45.406Z,24.83
2022-11-19T11:38:50.597Z,31.40
2022-11-19T11:42:05.332Z,30.95
2022-11-19T11:45:24.027Z,32.08
2022-11-19T11:48:35.239Z,24.90
2022-11-19T11:51:39.850Z,28.35
2022-11-19T11:54:56.840Z,31.02
2022-11-19T11:58:05.285Z,28.83
2022-11-19T12:01:18.394Z,29.33
2022-11-19T12:04:21.439Z,27.13
2022-11-19T12:07:46.514Z,29.95
2022-11-19T12:11:01.690Z,33.10
2022-11-19T12:14:11.222Z,29.83
2022-11-19T12:17:26.424Z,33.13
2022-11-19T12:20:47.314Z,29.33
2022-11-19T12:24:15.009Z,33.05
2022-11-19T12:27:35.834Z,27.30
2022-11-19T12:30:57.523Z,25.20
2022-11-19T12:34:30.758Z,27.92
2022-11-19T12:37:36.884Z,26.63
2022-11-19T12:40:44.999Z,25.23
2022-11-19T12:43:58.124Z,25.58
2022-11-19T12:47:14.147Z,26.33
2022-11-19T12:51:01.309Z,27.45
2022-11-19T12:54:34.691Z,25.70
2022-11-19T12:58:03.366Z,25.73
2022-11-19T13:01:10.447Z,24.25
2022-11-19T13:04:42.202Z,30.80
2022-11-19T13:07:51.836Z,28.50
2022-11-19T13:11:05.711Z,33.63
2022-11-19T13:14:50.710Z,29.58
2022-11-19T13:17:56.928Z,32.35
2022-11-19T13:21:25.965Z,29.85
2022-11-19T13:24:32.802Z,30.15
2022-11-19T13:27:36.746Z,29.40
2022-11-19T13:30:40.475Z,32.72
2022-11-19T13:33:51.346Z,29.25
2022-11-19T13:37:13.175Z,27.92
2022-11-19T13:40:26.330Z,26.90
2022-11-19T13:43:48.038Z,25.97
2022-11-19T13:46:55.876Z,30.58
2022-11-19T13:50:02.435Z,29.48
2022-11-19T13:53:13.018Z,29.63
2022-11-19T13:56:17.333Z,29.80
2022-11-19T13:59:25.621Z,29.77
2022-11-19T14:02:56.417Z,32.10
2022-11-19T14:06:08.370Z,29.67
2022-11-19T14:09:23.928Z,26.25
2022-11-19T14:12:51.197Z,25.83
2022-11-19T14:16:12.272Z,33.23
2022-11-19T14:19:35.984Z,32.67
2022-11-19T14:22:57.206Z,28.12
2022-11-19T14:26:18.308Z,33.17
2022-11-19T14:29:26.564Z,31.45
2022-11-19T14:32:30.878Z,32.13
2022-11-19T14:35:36.092Z,30.30
2022-11-19T14:38:43.092Z,30.10
2022-11-19T14:41:45.855Z,33.85
2022-11-19T14:44:58.167Z,31.65
2022-11-19T14:48:04.337Z,33.63
2022-11-19T14:51:13.298Z,31.75
2022-11-19T14:54:15.846Z,35.10
2022-11-19T14:57:28.539Z,32.20
2022-11-19T15:00:34.607Z,30.58
2022-11-19T15:03:38.053Z,32.07
2022-11-19T15:06:40.903Z,31.48
2022-11-19T15:10:04.979Z,34.97
2022-11-19T15:13:19.772Z,29.95
2022-11-19T15:16:26.661Z,34.78
2022-11-19T15:19:52.270Z,30.27
2022-11-19T15:23:12.599Z,33.13
2022-11-19T15:26:21.423Z,27.23
2022-11-19T15:29:52.531Z,30.90
2022-11-19T15:33:17.016Z,28.95
2022-11-19T15:36:32.642Z,31.03
2022-11-19T15:39:39.305Z,30.60
2022-11-19T15:42:53.019Z,27.80
2022-11-19T15:46:01.617Z,36.33
2022-11-19T15:49:10.403Z,28.20
2022-11-19T15:52:27.333Z,25.60
2022-11-19T15:55:31.975Z,27.58
2022-11-19T15:58:42.071Z,31.30
2022-11-19T16:01:45.084Z,25.17
2022-11-19T16:04:50.504Z,27.85
2022-11-19T16:07:53.595Z,29.40
2022-11-19T16:11:20.193Z,26.73
2022-11-19T16:14:46.571Z,24.42
2022-11-19T16:17:49.523Z,23.62
2022-11-19T16:20:52.728Z,27.50
2022-11-19T16:24:14.274Z,28.17
2022-11-19T16:27:22.939Z,29.08
2022-11-19T16:30:28.798Z,32.40
2022-11-19T16:33:32.957Z,30.80
2022-11-19T16:36:35.899Z,29.33
2022-11-19T16:39:38.915Z,28.37
2022-11-19T16:42:44.760Z,28.38
2022-11-19T16:45:47.819Z,31.35
2022-11-19T16:48:50.869Z,30.90
2022-11-19T16:51:54.148Z,30.08
2022-11-19T16:54:57.088Z,31.03
2022-11-19T16:58:18.796Z,34.70
2022-11-19T17:01:24.433Z,26.73
2022-11-19T17:04:31.485Z,27.65
2022-11-19T17:07:35.049Z,30.60
2022-11-19T17:10:38.406Z,32.23
2022-11-19T17:13:41.250Z,35.40
2022-11-19T17:16:48.753Z,30.67
2022-11-19T17:19:51.672Z,35.80
2022-11-19T17:22:54.328Z,35.17
2022-11-19T17:25:59.482Z,31.60
2022-11-19T17:29:11.192Z,31.70
2022-11-19T17:32:14.419Z,32.65
2022-11-19T17:35:38.852Z,31.60
2022-11-19T17:38:42.791Z,32.03
2022-11-19T17:42:05.943Z,35.33
2022-11-19T17:45:10.950Z,37.50
2022-11-19T17:48:25.174Z,26.65
2022-11-19T17:51:28.001Z,31.12
2022-11-19T17:54:32.102Z,36.10
2022-11-19T17:57:41.132Z,33.67
2022-11-19T18:00:45.293Z,33.03
2022-11-19T18:03:48.432Z,30.45
2022-11-19T18:06:51.130Z,30.35
2022-11-19T18:09:54.186Z,30.50
2022-11-19T18:12:56.819Z,29.47
2022-11-19T18:16:00.016Z,29.17
2022-11-19T18:19:03.236Z,32.00
2022-11-19T18:22:06.903Z,31.27
2022-11-19T18:25:14.638Z,31.17
2022-11-19T18:28:17.769Z,32.20
2022-11-19T18:31:23.007Z,30.48
2022-11-19T18:34:25.912Z,35.63
2022-11-19T18:37:29.338Z,29.27
2022-11-19T18:40:32.502Z,34.10
2022-11-19T18:43:53.980Z,29.97
2022-11-19T18:46:57.025Z,28.12
2022-11-19T18:49:59.670Z,30.15
2022-11-19T18:53:02.911Z,27.10
2022-11-19T18:56:06.363Z,24.52
2022-11-19T18:59:12.116Z,28.83
2022-11-19T19:02:15.128Z,22.70
2022-11-19T19:05:18.239Z,26.55
2022-11-19T19:08:22.293Z,29.90
2022-11-19T19:11:44.386Z,29.92
2022-11-19T19:14:49.076Z,33.53
2022-11-19T19:17:52.582Z,27.85
2022-11-19T19:20:55.240Z,28.50
2022-11-19T19:23:58.322Z,28.58
2022-11-19T19:27:02.687Z,30.30
2022-11-19T19:30:06.448Z,29.83
2022-11-19T19:33:09.253Z,32.17
2022-11-19T19:36:12.436Z,23.90
2022-11-19T19:39:15.128Z,29.95
2022-11-19T19:42:17.870Z,28.25
2022-11-19T19:45:20.310Z,25.07
2022-11-19T19:48:23.364Z,29.90
2022-11-19T19:51:28.192Z,29.92
2022-11-19T19:54:31.251Z,30.98
2022-11-19T19:57:34.049Z,29.17
2022-11-19T20:00:37.325Z,26.70
2022-11-19T20:03:40.575Z,22.10
2022-11-19T20:06:47.494Z,28.87
2022-11-19T20:09:50.486Z,32.03
2022-11-19T20:13:11.896Z,29.52
2022-11-19T20:16:18.686Z,26.40
2022-11-19T20:19:22.915Z,27.08
2022-11-19T20:22:25.966Z,29.83
2022-11-19T20:25:28.656Z,25.17
2022-11-19T20:28:32.328Z,26.23
2022-11-19T20:31:35.826Z,26.97
2022-11-19T20:34:42.023Z,33.65
2022-11-19T20:37:44.793Z,29.87
2022-11-19T20:41:02.054Z,29.87
2022-11-19T20:44:25.791Z,28.02
2022-11-19T20:47:28.961Z,26.33
2022-11-19T20:50:32.093Z,26.52
2022-11-19T20:53:35.524Z,27.90
2022-11-19T20:56:38.611Z,29.48
2022-11-19T20:59:41.596Z,26.37
2022-11-19T21:02:44.430Z,26.63
2022-11-19T21:05:47.483Z,25.73
2022-11-19T21:08:50.795Z,28.87
2022-11-19T21:11:53.935Z,29.73
2022-11-19T21:14:56.654Z,25.62
2022-11-19T21:17:59.646Z,29.57
2022-11-19T21:21:04.164Z,31.73
2022-11-19T21:24:07.962Z,26.85
2022-11-19T21:27:10.616Z,28.33
2022-11-19T21:30:14.194Z,26.05
2022-11-19T21:33:16.836Z,25.13
2022-11-19T21:36:22.861Z,24.77
2022-11-19T21:39:26.043Z,28.80
2022-11-19T21:42:29.146Z,23.27
2022-11-19T21:45:31.679Z,23.27
2022-11-19T21:48:37.623Z,24.37
2022-11-19T21:51:40.162Z,22.25
2022-11-19T21:54:43.021Z,27.67
2022-11-19T21:57:45.673Z,28.52
2022-11-19T22:00:48.622Z,19.65
2022-11-19T22:03:53.755Z,20.53
2022-11-19T22:06:56.286Z,23.45
2022-11-19T22:09:59.328Z,27.73
2022-11-19T22:13:01.842Z,22.42
2022-11-19T22:16:05.138Z,24.73
2022-11-19T22:19:08.149Z,23.03
2022-11-19T22:22:11.060Z,20.25
2022-11-19T22:25:14.000Z,23.52
2022-11-19T22:28:17.009Z,21.87
2022-11-19T22:31:19.466Z,21.85
2022-11-19T22:34:22.326Z,22.03
2022-11-19T22:37:24.956Z,23.40
2022-11-19T22:40:27.891Z,25.27
2022-11-19T22:43:32.415Z,21.30
2022-11-19T22:46:35.394Z,25.45
2022-11-19T22:49:37.941Z,26.00
2022-11-19T22:52:40.875Z,22.30
2022-11-19T22:55:43.512Z,25.15
2022-11-19T22:58:46.536Z,29.45
2022-11-19T23:01:49.105Z,21.40
2022-11-19T23:04:52.028Z,23.27
2022-11-19T23:07:54.588Z,27.23
2022-11-19T23:10:59.513Z,25.45
2022-11-19T23:14:01.941Z,28.95
2022-11-19T23:17:04.739Z,23.95
2022-11-19T23:20:07.897Z,22.30
2022-11-19T23:23:10.792Z,25.67
2022-11-19T23:26:14.552Z,25.23
2022-11-19T23:29:17.566Z,25.40
2022-11-19T23:32:20.224Z,28.33
2022-11-19T23:35:23.046Z,23.00
2022-11-19T23:38:25.910Z,26.95
2022-11-19T23:41:31.896Z,21.55
2022-11-19T23:44:34.412Z,23.77
2022-11-19T23:47:37.958Z,24.98
2022-11-19T23:50:40.517Z,22.67
2022-11-19T23:53:43.723Z,21.62
2022-11-19T23:56:46.490Z,21.33
2022-11-19T23:59:49.376Z,26.30
